sensor_id;sensor_type;location;lat;lon;timestamp;P1;durP1;ratioP1;P2;durP2;ratioP2
495;SDS011;39559;48.630;9.162;2023-12-20T00:02:08;2.30;;;2.10;;
495;SDS011;39559;48.630;9.162;2023-12-20T00:04:33;2.10;;;1.90;;
495;SDS011;39559;48.630;9.162;2023-12-20T00:06:59;2.53;;;2.30;;
495;SDS011;39559;48.630;9.162;2023-12-20T00:11:34;1.88;;;1.67;;
495;SDS011;39559;48.630;9.162;2023-12-20T00:13:59;2.00;;;1.90;;
495;SDS011;39559;48.630;9.162;2023-12-20T00:16:25;2.13;;;2.00;;
495;SDS011;39559;48.630;9.162;2023-12-20T00:18:50;2.70;;;2.47;;
495;SDS011;39559;48.630;9.162;2023-12-20T00:21:16;2.43;;;2.23;;
495;SDS011;39559;48.630;9.162;2023-12-20T00:23:41;2.07;;;1.90;;
495;SDS011;39559;48.630;9.162;2023-12-20T00:26:07;2.50;;;2.30;;
495;SDS011;39559;48.630;9.162;2023-12-20T00:28:33;2.40;;;2.20;;
495;SDS011;39559;48.630;9.162;2023-12-20T00:30:58;2.30;;;2.10;;
495;SDS011;39559;48.630;9.162;2023-12-20T00:35:35;2.45;;;2.25;;
495;SDS011;39559;48.630;9.162;2023-12-20T00:38:00;2.40;;;2.20;;
495;SDS011;39559;48.630;9.162;2023-12-20T00:40:26;2.70;;;2.50;;
495;SDS011;39559;48.630;9.162;2023-12-20T00:42:51;2.37;;;2.17;;
495;SDS011;39559;48.630;9.162;2023-12-20T00:45:17;2.50;;;2.30;;
495;SDS011;39559;48.630;9.162;2023-12-20T00:47:43;4.33;;;2.43;;
495;SDS011;39559;48.630;9.162;2023-12-20T00:50:09;2.47;;;2.27;;
495;SDS011;39559;48.630;9.162;2023-12-20T00:52:34;2.42;;;2.22;;
495;SDS011;39559;48.630;9.162;2023-12-20T00:55:00;2.50;;;2.30;;
495;SDS011;39559;48.630;9.162;2023-12-20T00:59:35;2.30;;;2.15;;
495;SDS011;39559;48.630;9.162;2023-12-20T01:02:01;2.83;;;2.53;;
495;SDS011;39559;48.630;9.162;2023-12-20T01:04:27;2.72;;;2.20;;
495;SDS011;39559;48.630;9.162;2023-12-20T01:06:53;3.43;;;2.73;;
495;SDS011;39559;48.630;9.162;2023-12-20T01:09:18;2.23;;;2.10;;
495;SDS011;39559;48.630;9.162;2023-12-20T01:11:45;2.50;;;2.30;;
495;SDS011;39559;48.630;9.162;2023-12-20T01:14:13;2.60;;;2.30;;
495;SDS011;39559;48.630;9.162;2023-12-20T01:16:39;2.77;;;2.00;;
495;SDS011;39559;48.630;9.162;2023-12-20T01:19:04;2.17;;;2.03;;
495;SDS011;39559;48.630;9.162;2023-12-20T01:23:36;2.05;;;1.80;;
495;SDS011;39559;48.630;9.162;2023-12-20T01:26:02;2.13;;;2.03;;
495;SDS011;39559;48.630;9.162;2023-12-20T01:28:30;2.45;;;2.10;;
495;SDS011;39559;48.630;9.162;2023-12-20T01:30:56;2.00;;;1.90;;
495;SDS011;39559;48.630;9.162;2023-12-20T01:33:22;3.42;;;2.50;;
495;SDS011;39559;48.630;9.162;2023-12-20T01:35:48;2.17;;;2.07;;
495;SDS011;39559;48.630;9.162;2023-12-20T01:38:13;1.70;;;1.60;;
495;SDS011;39559;48.630;9.162;2023-12-20T01:40:39;2.23;;;2.03;;
495;SDS011;39559;48.630;9.162;2023-12-20T01:43:08;2.13;;;1.97;;
495;SDS011;39559;48.630;9.162;2023-12-20T01:47:36;2.25;;;1.98;;
495;SDS011;39559;48.630;9.162;2023-12-20T01:50:02;2.37;;;2.20;;
495;SDS011;39559;48.630;9.162;2023-12-20T01:52:29;2.20;;;2.00;;
495;SDS011;39559;48.630;9.162;2023-12-20T01:54:55;2.15;;;1.95;;
495;SDS011;39559;48.630;9.162;2023-12-20T01:57:26;2.17;;;1.98;;
495;SDS011;39559;48.630;9.162;2023-12-20T01:59:52;2.00;;;1.90;;
495;SDS011;39559;48.630;9.162;2023-12-20T02:02:22;2.30;;;2.10;;
495;SDS011;39559;48.630;9.162;2023-12-20T02:04:47;2.30;;;2.10;;
495;SDS011;39559;48.630;9.162;2023-12-20T02:07:13;2.20;;;2.10;;
495;SDS011;39559;48.630;9.162;2023-12-20T02:11:37;2.33;;;2.13;;
495;SDS011;39559;48.630;9.162;2023-12-20T02:14:03;2.23;;;2.07;;
495;SDS011;39559;48.630;9.162;2023-12-20T02:16:29;3.43;;;1.93;;
495;SDS011;39559;48.630;9.162;2023-12-20T02:18:54;2.10;;;2.00;;
495;SDS011;39559;48.630;9.162;2023-12-20T02:21:41;3.23;;;2.10;;
495;SDS011;39559;48.630;9.162;2023-12-20T02:24:06;1.90;;;1.80;;
495;SDS011;39559;48.630;9.162;2023-12-20T02:26:32;2.10;;;2.00;;
495;SDS011;39559;48.630;9.162;2023-12-20T02:28:58;2.00;;;1.90;;
495;SDS011;39559;48.630;9.162;2023-12-20T02:31:24;2.10;;;2.00;;
495;SDS011;39559;48.630;9.162;2023-12-20T02:35:38;2.00;;;1.80;;
495;SDS011;39559;48.630;9.162;2023-12-20T02:38:03;1.67;;;1.57;;
495;SDS011;39559;48.630;9.162;2023-12-20T02:40:29;1.83;;;1.73;;
495;SDS011;39559;48.630;9.162;2023-12-20T02:42:54;2.07;;;1.87;;
495;SDS011;39559;48.630;9.162;2023-12-20T02:45:20;1.80;;;1.70;;
495;SDS011;39559;48.630;9.162;2023-12-20T02:47:45;1.77;;;1.67;;
495;SDS011;39559;48.630;9.162;2023-12-20T02:50:11;2.07;;;1.70;;
495;SDS011;39559;48.630;9.162;2023-12-20T02:52:36;1.60;;;1.50;;
495;SDS011;39559;48.630;9.162;2023-12-20T02:55:02;1.60;;;1.50;;
495;SDS011;39559;48.630;9.162;2023-12-20T02:59:38;1.73;;;1.63;;
495;SDS011;39559;48.630;9.162;2023-12-20T03:02:03;1.60;;;1.50;;
495;SDS011;39559;48.630;9.162;2023-12-20T03:04:29;1.50;;;1.40;;
495;SDS011;39559;48.630;9.162;2023-12-20T03:06:55;1.57;;;1.47;;
495;SDS011;39559;48.630;9.162;2023-12-20T03:09:20;1.60;;;1.50;;
495;SDS011;39559;48.630;9.162;2023-12-20T03:11:46;1.50;;;1.40;;
495;SDS011;39559;48.630;9.162;2023-12-20T03:14:11;1.73;;;1.63;;
495;SDS011;39559;48.630;9.162;2023-12-20T03:16:37;1.50;;;1.40;;
495;SDS011;39559;48.630;9.162;2023-12-20T03:19:02;1.93;;;1.73;;
495;SDS011;39559;48.630;9.162;2023-12-20T03:23:39;1.70;;;1.60;;
495;SDS011;39559;48.630;9.162;2023-12-20T03:26:08;1.70;;;1.60;;
495;SDS011;39559;48.630;9.162;2023-12-20T03:28:34;1.50;;;1.40;;
495;SDS011;39559;48.630;9.162;2023-12-20T03:31:01;1.60;;;1.50;;
495;SDS011;39559;48.630;9.162;2023-12-20T03:33:27;1.60;;;1.50;;
495;SDS011;39559;48.630;9.162;2023-12-20T03:35:53;1.80;;;1.70;;
495;SDS011;39559;48.630;9.162;2023-12-20T03:38:19;1.60;;;1.50;;
495;SDS011;39559;48.630;9.162;2023-12-20T03:40:45;1.50;;;1.40;;
495;SDS011;39559;48.630;9.162;2023-12-20T03:43:11;1.40;;;1.30;;
495;SDS011;39559;48.630;9.162;2023-12-20T03:47:39;1.50;;;1.40;;
495;SDS011;39559;48.630;9.162;2023-12-20T03:50:04;1.50;;;1.40;;
495;SDS011;39559;48.630;9.162;2023-12-20T03:52:30;1.40;;;1.30;;
495;SDS011;39559;48.630;9.162;2023-12-20T03:54:56;1.30;;;1.20;;
495;SDS011;39559;48.630;9.162;2023-12-20T03:57:21;1.57;;;1.47;;
495;SDS011;39559;48.630;9.162;2023-12-20T03:59:47;1.47;;;1.37;;
495;SDS011;39559;48.630;9.162;2023-12-20T04:02:12;1.33;;;1.23;;
495;SDS011;39559;48.630;9.162;2023-12-20T04:04:38;2.57;;;1.37;;
495;SDS011;39559;48.630;9.162;2023-12-20T04:07:03;1.27;;;1.17;;
495;SDS011;39559;48.630;9.162;2023-12-20T04:11:39;1.40;;;1.30;;
495;SDS011;39559;48.630;9.162;2023-12-20T04:14:05;1.50;;;1.40;;
495;SDS011;39559;48.630;9.162;2023-12-20T04:16:30;1.50;;;1.37;;
495;SDS011;39559;48.630;9.162;2023-12-20T04:18:56;1.50;;;1.40;;
495;SDS011;39559;48.630;9.162;2023-12-20T04:21:21;1.40;;;1.30;;
495;SDS011;39559;48.630;9.162;2023-12-20T04:23:47;1.60;;;1.50;;
495;SDS011;39559;48.630;9.162;2023-12-20T04:26:12;1.30;;;1.20;;
495;SDS011;39559;48.630;9.162;2023-12-20T04:28:38;1.33;;;1.23;;
495;SDS011;39559;48.630;9.162;2023-12-20T04:31:03;1.23;;;1.13;;
495;SDS011;39559;48.630;9.162;2023-12-20T04:35:39;1.40;;;1.30;;
495;SDS011;39559;48.630;9.162;2023-12-20T04:38:06;1.40;;;1.30;;
495;SDS011;39559;48.630;9.162;2023-12-20T04:40:32;1.50;;;1.40;;
495;SDS011;39559;48.630;9.162;2023-12-20T04:42:57;2.73;;;1.30;;
495;SDS011;39559;48.630;9.162;2023-12-20T04:45:23;1.50;;;1.40;;
495;SDS011;39559;48.630;9.162;2023-12-20T04:47:50;1.30;;;1.20;;
495;SDS011;39559;48.630;9.162;2023-12-20T04:50:16;1.40;;;1.30;;
495;SDS011;39559;48.630;9.162;2023-12-20T04:52:42;2.20;;;1.83;;
495;SDS011;39559;48.630;9.162;2023-12-20T04:55:08;1.90;;;1.80;;
495;SDS011;39559;48.630;9.162;2023-12-20T04:59:40;1.70;;;1.60;;
495;SDS011;39559;48.630;9.162;2023-12-20T05:02:06;1.35;;;1.25;;
495;SDS011;39559;48.630;9.162;2023-12-20T05:04:32;1.60;;;1.50;;
495;SDS011;39559;48.630;9.162;2023-12-20T05:06:57;1.40;;;1.30;;
495;SDS011;39559;48.630;9.162;2023-12-20T05:09:23;1.73;;;1.50;;
495;SDS011;39559;48.630;9.162;2023-12-20T05:11:49;1.73;;;1.53;;
495;SDS011;39559;48.630;9.162;2023-12-20T05:14:14;1.90;;;1.80;;
495;SDS011;39559;48.630;9.162;2023-12-20T05:16:40;1.83;;;1.50;;
495;SDS011;39559;48.630;9.162;2023-12-20T05:19:06;1.77;;;1.67;;
495;SDS011;39559;48.630;9.162;2023-12-20T05:23:40;2.40;;;2.20;;
495;SDS011;39559;48.630;9.162;2023-12-20T05:26:06;1.80;;;1.70;;
495;SDS011;39559;48.630;9.162;2023-12-20T05:28:31;1.77;;;1.67;;
495;SDS011;39559;48.630;9.162;2023-12-20T05:30:57;1.50;;;1.40;;
495;SDS011;39559;48.630;9.162;2023-12-20T05:33:23;1.90;;;1.73;;
495;SDS011;39559;48.630;9.162;2023-12-20T05:35:48;1.53;;;1.43;;
495;SDS011;39559;48.630;9.162;2023-12-20T05:38:14;1.70;;;1.60;;
495;SDS011;39559;48.630;9.162;2023-12-20T05:40:39;1.50;;;1.40;;
495;SDS011;39559;48.630;9.162;2023-12-20T05:43:05;1.40;;;1.30;;
495;SDS011;39559;48.630;9.162;2023-12-20T05:47:42;1.40;;;1.30;;
495;SDS011;39559;48.630;9.162;2023-12-20T05:50:07;1.50;;;1.40;;
495;SDS011;39559;48.630;9.162;2023-12-20T05:52:34;1.55;;;1.45;;
495;SDS011;39559;48.630;9.162;2023-12-20T05:54:59;1.40;;;1.30;;
495;SDS011;39559;48.630;9.162;2023-12-20T05:57:26;1.65;;;1.55;;
495;SDS011;39559;48.630;9.162;2023-12-20T05:59:52;1.60;;;1.50;;
495;SDS011;39559;48.630;9.162;2023-12-20T06:02:18;1.40;;;1.30;;
495;SDS011;39559;48.630;9.162;2023-12-20T06:04:44;1.40;;;1.30;;
495;SDS011;39559;48.630;9.162;2023-12-20T06:07:13;1.30;;;1.20;;
495;SDS011;39559;48.630;9.162;2023-12-20T06:11:41;1.65;;;1.55;;
495;SDS011;39559;48.630;9.162;2023-12-20T06:14:07;1.20;;;1.10;;
495;SDS011;39559;48.630;9.162;2023-12-20T06:16:33;1.37;;;1.27;;
495;SDS011;39559;48.630;9.162;2023-12-20T06:18:58;1.43;;;1.33;;
495;SDS011;39559;48.630;9.162;2023-12-20T06:21:24;1.67;;;1.57;;
495;SDS011;39559;48.630;9.162;2023-12-20T06:23:50;1.40;;;1.30;;
495;SDS011;39559;48.630;9.162;2023-12-20T06:26:15;1.73;;;1.63;;
495;SDS011;39559;48.630;9.162;2023-12-20T06:28:41;1.40;;;1.30;;
495;SDS011;39559;48.630;9.162;2023-12-20T06:31:06;1.70;;;1.60;;
495;SDS011;39559;48.630;9.162;2023-12-20T06:35:41;1.65;;;1.55;;
495;SDS011;39559;48.630;9.162;2023-12-20T06:38:07;1.73;;;1.63;;
495;SDS011;39559;48.630;9.162;2023-12-20T06:40:33;2.10;;;2.00;;
495;SDS011;39559;48.630;9.162;2023-12-20T06:42:59;2.40;;;2.20;;
495;SDS011;39559;48.630;9.162;2023-12-20T06:45:25;1.80;;;1.70;;
495;SDS011;39559;48.630;9.162;2023-12-20T06:47:50;2.03;;;1.93;;
495;SDS011;39559;48.630;9.162;2023-12-20T06:50:16;1.70;;;1.60;;
495;SDS011;39559;48.630;9.162;2023-12-20T06:52:41;1.70;;;1.60;;
495;SDS011;39559;48.630;9.162;2023-12-20T06:55:07;1.90;;;1.80;;
495;SDS011;39559;48.630;9.162;2023-12-20T06:59:42;2.10;;;1.73;;
495;SDS011;39559;48.630;9.162;2023-12-20T07:02:10;2.10;;;1.90;;
495;SDS011;39559;48.630;9.162;2023-12-20T07:04:39;2.30;;;2.10;;
495;SDS011;39559;48.630;9.162;2023-12-20T07:07:05;2.05;;;1.95;;
495;SDS011;39559;48.630;9.162;2023-12-20T07:09:32;2.22;;;2.13;;
495;SDS011;39559;48.630;9.162;2023-12-20T07:11:58;2.70;;;2.00;;
495;SDS011;39559;48.630;9.162;2023-12-20T07:14:24;2.13;;;2.03;;
495;SDS011;39559;48.630;9.162;2023-12-20T07:16:50;1.90;;;1.80;;
495;SDS011;39559;48.630;9.162;2023-12-20T07:19:15;1.80;;;1.70;;
495;SDS011;39559;48.630;9.162;2023-12-20T07:23:42;2.17;;;2.08;;
495;SDS011;39559;48.630;9.162;2023-12-20T07:26:07;1.90;;;1.80;;
495;SDS011;39559;48.630;9.162;2023-12-20T07:28:33;1.40;;;1.30;;
495;SDS011;39559;48.630;9.162;2023-12-20T07:30:59;1.77;;;1.67;;
495;SDS011;39559;48.630;9.162;2023-12-20T07:33:24;2.20;;;2.10;;
495;SDS011;39559;48.630;9.162;2023-12-20T07:35:50;2.10;;;2.00;;
495;SDS011;39559;48.630;9.162;2023-12-20T07:38:17;2.50;;;2.30;;
495;SDS011;39559;48.630;9.162;2023-12-20T07:40:42;2.50;;;2.30;;
495;SDS011;39559;48.630;9.162;2023-12-20T07:43:08;2.40;;;2.20;;
495;SDS011;39559;48.630;9.162;2023-12-20T07:47:42;2.15;;;2.05;;
495;SDS011;39559;48.630;9.162;2023-12-20T07:50:08;2.57;;;2.37;;
495;SDS011;39559;48.630;9.162;2023-12-20T07:52:33;2.10;;;1.90;;
495;SDS011;39559;48.630;9.162;2023-12-20T07:54:59;2.30;;;2.10;;
495;SDS011;39559;48.630;9.162;2023-12-20T07:57:24;2.67;;;1.90;;
495;SDS011;39559;48.630;9.162;2023-12-20T07:59:50;1.90;;;1.80;;
495;SDS011;39559;48.630;9.162;2023-12-20T08:02:16;2.10;;;2.00;;
495;SDS011;39559;48.630;9.162;2023-12-20T08:04:41;3.33;;;2.40;;
495;SDS011;39559;48.630;9.162;2023-12-20T08:07:07;2.40;;;2.20;;
495;SDS011;39559;48.630;9.162;2023-12-20T08:11:49;2.13;;;2.03;;
495;SDS011;39559;48.630;9.162;2023-12-20T08:14:15;2.20;;;2.05;;
495;SDS011;39559;48.630;9.162;2023-12-20T08:16:41;2.95;;;2.50;;
495;SDS011;39559;48.630;9.162;2023-12-20T08:19:07;1.93;;;1.70;;
495;SDS011;39559;48.630;9.162;2023-12-20T08:21:33;2.17;;;1.97;;
495;SDS011;39559;48.630;9.162;2023-12-20T08:23:59;2.28;;;2.08;;
495;SDS011;39559;48.630;9.162;2023-12-20T08:26:26;2.30;;;2.17;;
495;SDS011;39559;48.630;9.162;2023-12-20T08:28:51;2.27;;;2.17;;
495;SDS011;39559;48.630;9.162;2023-12-20T08:31:17;2.50;;;2.30;;
495;SDS011;39559;48.630;9.162;2023-12-20T08:35:43;2.45;;;2.25;;
495;SDS011;39559;48.630;9.162;2023-12-20T08:38:09;2.50;;;2.30;;
495;SDS011;39559;48.630;9.162;2023-12-20T08:40:34;2.30;;;2.10;;
495;SDS011;39559;48.630;9.162;2023-12-20T08:43:00;2.33;;;2.13;;
495;SDS011;39559;48.630;9.162;2023-12-20T08:45:26;3.67;;;2.40;;
495;SDS011;39559;48.630;9.162;2023-12-20T08:47:51;3.33;;;3.03;;
495;SDS011;39559;48.630;9.162;2023-12-20T08:50:17;2.17;;;2.00;;
495;SDS011;39559;48.630;9.162;2023-12-20T08:52:43;2.67;;;2.47;;
495;SDS011;39559;48.630;9.162;2023-12-20T08:55:09;2.37;;;2.27;;
495;SDS011;39559;48.630;9.162;2023-12-20T08:59:43;3.08;;;2.70;;
495;SDS011;39559;48.630;9.162;2023-12-20T09:02:09;3.90;;;3.20;;
495;SDS011;39559;48.630;9.162;2023-12-20T09:04:35;3.27;;;3.00;;
495;SDS011;39559;48.630;9.162;2023-12-20T09:07:00;3.80;;;3.20;;
495;SDS011;39559;48.630;9.162;2023-12-20T09:09:26;4.75;;;3.78;;
495;SDS011;39559;48.630;9.162;2023-12-20T09:11:52;4.53;;;3.70;;
495;SDS011;39559;48.630;9.162;2023-12-20T09:14:17;3.73;;;3.43;;
495;SDS011;39559;48.630;9.162;2023-12-20T09:16:43;3.80;;;3.50;;
495;SDS011;39559;48.630;9.162;2023-12-20T09:19:08;3.43;;;3.07;;
495;SDS011;39559;48.630;9.162;2023-12-20T09:23:44;3.80;;;3.40;;
495;SDS011;39559;48.630;9.162;2023-12-20T09:26:10;3.45;;;3.15;;
495;SDS011;39559;48.630;9.162;2023-12-20T09:28:36;2.87;;;2.67;;
495;SDS011;39559;48.630;9.162;2023-12-20T09:31:02;3.00;;;2.80;;
495;SDS011;39559;48.630;9.162;2023-12-20T09:33:29;3.70;;;2.90;;
495;SDS011;39559;48.630;9.162;2023-12-20T09:35:54;3.60;;;3.10;;
495;SDS011;39559;48.630;9.162;2023-12-20T09:38:20;2.70;;;2.50;;
495;SDS011;39559;48.630;9.162;2023-12-20T09:40:46;3.30;;;2.70;;
495;SDS011;39559;48.630;9.162;2023-12-20T09:43:14;3.80;;;2.60;;
495;SDS011;39559;48.630;9.162;2023-12-20T09:47:44;3.63;;;2.97;;
495;SDS011;39559;48.630;9.162;2023-12-20T09:50:10;4.70;;;3.25;;
495;SDS011;39559;48.630;9.162;2023-12-20T09:52:37;4.20;;;2.70;;
495;SDS011;39559;48.630;9.162;2023-12-20T09:55:04;3.20;;;2.80;;
495;SDS011;39559;48.630;9.162;2023-12-20T09:57:33;3.20;;;2.97;;
495;SDS011;39559;48.630;9.162;2023-12-20T09:59:59;3.35;;;2.60;;
495;SDS011;39559;48.630;9.162;2023-12-20T10:02:25;2.50;;;2.30;;
495;SDS011;39559;48.630;9.162;2023-12-20T10:04:55;3.10;;;2.80;;
495;SDS011;39559;48.630;9.162;2023-12-20T10:07:21;5.95;;;2.90;;
495;SDS011;39559;48.630;9.162;2023-12-20T10:11:44;3.97;;;2.75;;
495;SDS011;39559;48.630;9.162;2023-12-20T10:14:10;2.70;;;2.50;;
495;SDS011;39559;48.630;9.162;2023-12-20T10:16:36;6.60;;;3.28;;
495;SDS011;39559;48.630;9.162;2023-12-20T10:19:01;6.40;;;4.87;;
495;SDS011;39559;48.630;9.162;2023-12-20T10:21:27;6.00;;;3.70;;
495;SDS011;39559;48.630;9.162;2023-12-20T10:23:54;4.40;;;3.22;;
495;SDS011;39559;48.630;9.162;2023-12-20T10:26:29;3.42;;;3.10;;
495;SDS011;39559;48.630;9.162;2023-12-20T10:28:56;4.93;;;3.15;;
495;SDS011;39559;48.630;9.162;2023-12-20T10:31:26;3.00;;;2.60;;
495;SDS011;39559;48.630;9.162;2023-12-20T10:35:44;3.40;;;2.50;;
495;SDS011;39559;48.630;9.162;2023-12-20T10:38:10;4.77;;;3.10;;
495;SDS011;39559;48.630;9.162;2023-12-20T10:40:38;2.80;;;2.40;;
495;SDS011;39559;48.630;9.162;2023-12-20T10:43:04;2.80;;;2.60;;
495;SDS011;39559;48.630;9.162;2023-12-20T10:45:30;5.95;;;2.40;;
495;SDS011;39559;48.630;9.162;2023-12-20T10:47:57;2.70;;;2.50;;
495;SDS011;39559;48.630;9.162;2023-12-20T10:50:26;2.50;;;2.30;;
495;SDS011;39559;48.630;9.162;2023-12-20T10:52:56;5.60;;;3.15;;
495;SDS011;39559;48.630;9.162;2023-12-20T10:55:23;2.92;;;2.60;;
495;SDS011;39559;48.630;9.162;2023-12-20T10:59:44;2.50;;;2.30;;
495;SDS011;39559;48.630;9.162;2023-12-20T11:02:14;2.75;;;2.33;;
495;SDS011;39559;48.630;9.162;2023-12-20T11:04:56;2.90;;;2.60;;
495;SDS011;39559;48.630;9.162;2023-12-20T11:07:32;3.13;;;2.75;;
495;SDS011;39559;48.630;9.162;2023-12-20T11:12:53;2.67;;;2.42;;
495;SDS011;39559;48.630;9.162;2023-12-20T11:15:24;3.33;;;2.80;;
495;SDS011;39559;48.630;9.162;2023-12-20T11:17:55;3.13;;;2.63;;
495;SDS011;39559;48.630;9.162;2023-12-20T11:20:35;2.85;;;2.42;;
495;SDS011;39559;48.630;9.162;2023-12-20T11:23:45;2.33;;;2.15;;
495;SDS011;39559;48.630;9.162;2023-12-20T11:26:11;3.00;;;2.63;;
495;SDS011;39559;48.630;9.162;2023-12-20T11:28:36;2.67;;;2.40;;
495;SDS011;39559;48.630;9.162;2023-12-20T11:31:02;3.20;;;2.47;;
495;SDS011;39559;48.630;9.162;2023-12-20T11:33:35;2.80;;;2.60;;
495;SDS011;39559;48.630;9.162;2023-12-20T11:36:02;3.15;;;2.78;;
495;SDS011;39559;48.630;9.162;2023-12-20T11:38:37;2.85;;;2.65;;
495;SDS011;39559;48.630;9.162;2023-12-20T11:41:05;2.75;;;2.30;;
495;SDS011;39559;48.630;9.162;2023-12-20T11:43:38;2.83;;;2.63;;
495;SDS011;39559;48.630;9.162;2023-12-20T11:47:46;2.85;;;2.45;;
495;SDS011;39559;48.630;9.162;2023-12-20T11:50:12;2.65;;;2.42;;
495;SDS011;39559;48.630;9.162;2023-12-20T11:52:38;2.63;;;2.43;;
495;SDS011;39559;48.630;9.162;2023-12-20T11:55:03;2.63;;;2.43;;
495;SDS011;39559;48.630;9.162;2023-12-20T11:57:30;2.80;;;2.50;;
495;SDS011;39559;48.630;9.162;2023-12-20T11:59:56;2.50;;;2.30;;
495;SDS011;39559;48.630;9.162;2023-12-20T12:02:22;2.90;;;2.67;;
495;SDS011;39559;48.630;9.162;2023-12-20T12:04:52;5.60;;;2.60;;
495;SDS011;39559;48.630;9.162;2023-12-20T12:07:17;3.67;;;2.45;;
495;SDS011;39559;48.630;9.162;2023-12-20T12:11:44;4.03;;;2.65;;
495;SDS011;39559;48.630;9.162;2023-12-20T12:14:10;3.93;;;2.90;;
495;SDS011;39559;48.630;9.162;2023-12-20T12:16:36;3.60;;;2.60;;
495;SDS011;39559;48.630;9.162;2023-12-20T12:19:02;2.43;;;2.23;;
495;SDS011;39559;48.630;9.162;2023-12-20T12:21:29;3.67;;;3.13;;
495;SDS011;39559;48.630;9.162;2023-12-20T12:24:06;3.70;;;3.20;;
495;SDS011;39559;48.630;9.162;2023-12-20T12:26:32;3.22;;;2.40;;
495;SDS011;39559;48.630;9.162;2023-12-20T12:28:58;3.10;;;2.80;;
495;SDS011;39559;48.630;9.162;2023-12-20T12:31:23;3.97;;;3.10;;
495;SDS011;39559;48.630;9.162;2023-12-20T12:35:42;3.60;;;2.70;;
495;SDS011;39559;48.630;9.162;2023-12-20T12:38:08;3.40;;;3.00;;
495;SDS011;39559;48.630;9.162;2023-12-20T12:40:34;3.70;;;2.93;;
495;SDS011;39559;48.630;9.162;2023-12-20T12:43:01;2.90;;;2.70;;
495;SDS011;39559;48.630;9.162;2023-12-20T12:45:26;2.93;;;2.73;;
495;SDS011;39559;48.630;9.162;2023-12-20T12:47:52;2.53;;;2.30;;
495;SDS011;39559;48.630;9.162;2023-12-20T12:50:20;3.10;;;2.78;;
495;SDS011;39559;48.630;9.162;2023-12-20T12:52:46;3.17;;;2.55;;
495;SDS011;39559;48.630;9.162;2023-12-20T12:55:12;3.13;;;2.80;;
495;SDS011;39559;48.630;9.162;2023-12-20T12:59:45;4.43;;;2.75;;
495;SDS011;39559;48.630;9.162;2023-12-20T13:02:12;4.50;;;2.60;;
495;SDS011;39559;48.630;9.162;2023-12-20T13:04:41;3.78;;;2.70;;
495;SDS011;39559;48.630;9.162;2023-12-20T13:07:08;2.80;;;2.60;;
495;SDS011;39559;48.630;9.162;2023-12-20T13:09:37;2.88;;;2.67;;
495;SDS011;39559;48.630;9.162;2023-12-20T13:12:04;4.00;;;2.80;;
495;SDS011;39559;48.630;9.162;2023-12-20T13:14:34;4.53;;;3.00;;
495;SDS011;39559;48.630;9.162;2023-12-20T13:17:03;2.97;;;2.50;;
495;SDS011;39559;48.630;9.162;2023-12-20T13:19:29;4.97;;;2.90;;
495;SDS011;39559;48.630;9.162;2023-12-20T13:23:44;4.75;;;2.78;;
495;SDS011;39559;48.630;9.162;2023-12-20T13:26:09;4.20;;;2.47;;
495;SDS011;39559;48.630;9.162;2023-12-20T13:31:22;2.60;;;2.40;;
495;SDS011;39559;48.630;9.162;2023-12-20T13:33:48;3.37;;;2.40;;
495;SDS011;39559;48.630;9.162;2023-12-20T13:36:14;2.40;;;2.20;;
495;SDS011;39559;48.630;9.162;2023-12-20T13:38:40;3.38;;;2.60;;
495;SDS011;39559;48.630;9.162;2023-12-20T13:41:06;2.77;;;2.10;;
495;SDS011;39559;48.630;9.162;2023-12-20T13:43:31;2.83;;;2.53;;
495;SDS011;39559;48.630;9.162;2023-12-20T13:47:45;3.42;;;2.67;;
495;SDS011;39559;48.630;9.162;2023-12-20T13:50:11;4.30;;;2.58;;
495;SDS011;39559;48.630;9.162;2023-12-20T13:52:37;2.83;;;2.47;;
495;SDS011;39559;48.630;9.162;2023-12-20T13:55:04;3.13;;;2.53;;
495;SDS011;39559;48.630;9.162;2023-12-20T13:57:32;3.05;;;2.67;;
495;SDS011;39559;48.630;9.162;2023-12-20T13:59:59;3.20;;;2.57;;
495;SDS011;39559;48.630;9.162;2023-12-20T14:02:25;2.33;;;2.08;;
495;SDS011;39559;48.630;9.162;2023-12-20T14:04:52;4.88;;;2.45;;
495;SDS011;39559;48.630;9.162;2023-12-20T14:07:18;2.50;;;2.30;;
495;SDS011;39559;48.630;9.162;2023-12-20T14:11:44;2.85;;;2.65;;
495;SDS011;39559;48.630;9.162;2023-12-20T14:14:11;2.75;;;2.55;;
495;SDS011;39559;48.630;9.162;2023-12-20T14:16:37;4.70;;;3.00;;
495;SDS011;39559;48.630;9.162;2023-12-20T14:19:03;2.67;;;2.25;;
495;SDS011;39559;48.630;9.162;2023-12-20T14:21:30;3.17;;;2.50;;
495;SDS011;39559;48.630;9.162;2023-12-20T14:23:56;2.50;;;2.30;;
495;SDS011;39559;48.630;9.162;2023-12-20T14:26:21;7.47;;;2.77;;
495;SDS011;39559;48.630;9.162;2023-12-20T14:28:47;2.90;;;2.60;;
495;SDS011;39559;48.630;9.162;2023-12-20T14:31:13;2.70;;;2.47;;
495;SDS011;39559;48.630;9.162;2023-12-20T14:35:44;3.28;;;2.50;;
495;SDS011;39559;48.630;9.162;2023-12-20T14:38:10;3.40;;;2.47;;
495;SDS011;39559;48.630;9.162;2023-12-20T14:40:35;5.77;;;2.80;;
495;SDS011;39559;48.630;9.162;2023-12-20T14:43:01;3.37;;;2.37;;
495;SDS011;39559;48.630;9.162;2023-12-20T14:45:29;3.00;;;2.70;;
495;SDS011;39559;48.630;9.162;2023-12-20T14:47:55;2.83;;;2.47;;
495;SDS011;39559;48.630;9.162;2023-12-20T14:50:20;5.10;;;3.00;;
495;SDS011;39559;48.630;9.162;2023-12-20T14:52:47;2.92;;;2.63;;
495;SDS011;39559;48.630;9.162;2023-12-20T14:55:13;3.03;;;2.73;;
495;SDS011;39559;48.630;9.162;2023-12-20T14:59:44;4.30;;;2.60;;
495;SDS011;39559;48.630;9.162;2023-12-20T15:02:09;5.50;;;2.80;;
495;SDS011;39559;48.630;9.162;2023-12-20T15:04:35;7.20;;;3.30;;
495;SDS011;39559;48.630;9.162;2023-12-20T15:07:01;4.90;;;2.97;;
495;SDS011;39559;48.630;9.162;2023-12-20T15:09:27;4.95;;;3.22;;
495;SDS011;39559;48.630;9.162;2023-12-20T15:11:54;2.90;;;2.70;;
495;SDS011;39559;48.630;9.162;2023-12-20T15:14:20;4.20;;;3.80;;
495;SDS011;39559;48.630;9.162;2023-12-20T15:16:46;4.77;;;3.20;;
495;SDS011;39559;48.630;9.162;2023-12-20T15:19:12;2.90;;;2.65;;
495;SDS011;39559;48.630;9.162;2023-12-20T15:23:43;5.50;;;3.70;;
495;SDS011;39559;48.630;9.162;2023-12-20T15:26:18;3.30;;;3.00;;
495;SDS011;39559;48.630;9.162;2023-12-20T15:28:44;2.60;;;2.40;;
495;SDS011;39559;48.630;9.162;2023-12-20T15:31:10;3.40;;;3.10;;
495;SDS011;39559;48.630;9.162;2023-12-20T15:33:37;3.08;;;2.78;;
495;SDS011;39559;48.630;9.162;2023-12-20T15:36:04;5.55;;;2.97;;
495;SDS011;39559;48.630;9.162;2023-12-20T15:38:30;6.18;;;2.60;;
495;SDS011;39559;48.630;9.162;2023-12-20T15:40:56;2.70;;;2.50;;
495;SDS011;39559;48.630;9.162;2023-12-20T15:43:21;3.93;;;2.87;;
495;SDS011;39559;48.630;9.162;2023-12-20T15:47:43;2.70;;;2.50;;
495;SDS011;39559;48.630;9.162;2023-12-20T15:50:11;3.27;;;2.80;;
495;SDS011;39559;48.630;9.162;2023-12-20T15:52:37;2.67;;;2.47;;
495;SDS011;39559;48.630;9.162;2023-12-20T15:55:02;2.97;;;2.67;;
495;SDS011;39559;48.630;9.162;2023-12-20T15:57:29;3.50;;;2.38;;
495;SDS011;39559;48.630;9.162;2023-12-20T15:59:55;2.57;;;2.37;;
495;SDS011;39559;48.630;9.162;2023-12-20T16:02:21;4.90;;;2.53;;
495;SDS011;39559;48.630;9.162;2023-12-20T16:04:47;4.57;;;2.50;;
495;SDS011;39559;48.630;9.162;2023-12-20T16:07:13;3.93;;;2.73;;
495;SDS011;39559;48.630;9.162;2023-12-20T16:11:43;4.07;;;2.53;;
495;SDS011;39559;48.630;9.162;2023-12-20T16:14:09;3.92;;;2.70;;
495;SDS011;39559;48.630;9.162;2023-12-20T16:16:38;2.47;;;2.28;;
495;SDS011;39559;48.630;9.162;2023-12-20T16:19:05;4.15;;;2.58;;
495;SDS011;39559;48.630;9.162;2023-12-20T16:21:31;3.33;;;2.70;;
495;SDS011;39559;48.630;9.162;2023-12-20T16:23:56;2.60;;;2.33;;
495;SDS011;39559;48.630;9.162;2023-12-20T16:26:22;2.57;;;2.30;;
495;SDS011;39559;48.630;9.162;2023-12-20T16:28:48;2.53;;;2.10;;
495;SDS011;39559;48.630;9.162;2023-12-20T16:31:13;3.83;;;2.97;;
495;SDS011;39559;48.630;9.162;2023-12-20T16:35:43;2.90;;;2.70;;
495;SDS011;39559;48.630;9.162;2023-12-20T16:38:09;2.67;;;2.40;;
495;SDS011;39559;48.630;9.162;2023-12-20T16:40:35;5.43;;;2.93;;